sensor_id;sensor_type;location;lat;lon;timestamp;P1;durP1;ratioP1;P2;durP2;ratioP2
30874;SDS011;17581;43.222;27.924;2023-07-13T00:00:27;30.13;;;15.95;;
30874;SDS011;17581;43.222;27.924;2023-07-13T00:02:53;23.42;;;14.07;;
30874;SDS011;17581;43.222;27.924;2023-07-13T00:05:22;19.38;;;15.27;;
30874;SDS011;17581;43.222;27.924;2023-07-13T00:07:49;32.53;;;16.90;;
30874;SDS011;17581;43.222;27.924;2023-07-13T00:10:15;23.42;;;15.70;;
30874;SDS011;17581;43.222;27.924;2023-07-13T00:12:42;28.00;;;17.08;;
30874;SDS011;17581;43.222;27.924;2023-07-13T00:15:12;23.40;;;15.73;;
30874;SDS011;17581;43.222;27.924;2023-07-13T00:17:46;25.67;;;15.40;;
30874;SDS011;17581;43.222;27.924;2023-07-13T00:20:12;23.98;;;16.20;;
30874;SDS011;17581;43.222;27.924;2023-07-13T00:22:38;21.83;;;14.82;;
30874;SDS011;17581;43.222;27.924;2023-07-13T00:25:04;23.60;;;14.93;;
30874;SDS011;17581;43.222;27.924;2023-07-13T00:27:30;21.08;;;15.90;;
30874;SDS011;17581;43.222;27.924;2023-07-13T00:29:57;17.17;;;14.93;;
30874;SDS011;17581;43.222;27.924;2023-07-13T00:32:23;31.08;;;15.68;;
30874;SDS011;17581;43.222;27.924;2023-07-13T00:34:50;24.20;;;16.20;;
30874;SDS011;17581;43.222;27.924;2023-07-13T00:37:16;49.65;;;16.77;;
30874;SDS011;17581;43.222;27.924;2023-07-13T00:39:42;17.92;;;15.00;;
30874;SDS011;17581;43.222;27.924;2023-07-13T00:42:08;35.47;;;17.20;;
30874;SDS011;17581;43.222;27.924;2023-07-13T00:44:33;31.30;;;16.90;;
30874;SDS011;17581;43.222;27.924;2023-07-13T00:46:59;26.67;;;15.43;;
30874;SDS011;17581;43.222;27.924;2023-07-13T00:49:26;27.77;;;17.08;;
30874;SDS011;17581;43.222;27.924;2023-07-13T00:54:41;23.05;;;15.32;;
30874;SDS011;17581;43.222;27.924;2023-07-13T00:57:11;23.20;;;16.55;;
30874;SDS011;17581;43.222;27.924;2023-07-13T00:59:41;22.67;;;15.23;;
30874;SDS011;17581;43.222;27.924;2023-07-13T01:02:10;34.03;;;16.85;;
30874;SDS011;17581;43.222;27.924;2023-07-13T01:04:36;26.55;;;17.25;;
30874;SDS011;17581;43.222;27.924;2023-07-13T01:07:03;29.33;;;16.88;;
30874;SDS011;17581;43.222;27.924;2023-07-13T01:09:31;24.17;;;18.17;;
30874;SDS011;17581;43.222;27.924;2023-07-13T01:11:57;20.83;;;18.05;;
30874;SDS011;17581;43.222;27.924;2023-07-13T01:14:24;32.72;;;17.30;;
30874;SDS011;17581;43.222;27.924;2023-07-13T01:16:50;26.27;;;16.13;;
30874;SDS011;17581;43.222;27.924;2023-07-13T01:21:42;24.35;;;17.88;;
30874;SDS011;17581;43.222;27.924;2023-07-13T01:24:09;30.02;;;18.83;;
30874;SDS011;17581;43.222;27.924;2023-07-13T01:26:35;24.92;;;18.58;;
30874;SDS011;17581;43.222;27.924;2023-07-13T01:29:00;27.52;;;16.80;;
30874;SDS011;17581;43.222;27.924;2023-07-13T01:31:26;26.85;;;18.38;;
30874;SDS011;17581;43.222;27.924;2023-07-13T01:33:53;32.75;;;17.70;;
30874;SDS011;17581;43.222;27.924;2023-07-13T01:36:18;27.42;;;17.90;;
30874;SDS011;17581;43.222;27.924;2023-07-13T01:38:46;27.58;;;15.95;;
30874;SDS011;17581;43.222;27.924;2023-07-13T01:41:11;20.60;;;16.70;;
30874;SDS011;17581;43.222;27.924;2023-07-13T01:43:37;20.45;;;16.40;;
30874;SDS011;17581;43.222;27.924;2023-07-13T01:46:03;23.70;;;15.60;;
30874;SDS011;17581;43.222;27.924;2023-07-13T01:48:28;22.38;;;16.23;;
30874;SDS011;17581;43.222;27.924;2023-07-13T01:50:54;26.05;;;15.98;;
30874;SDS011;17581;43.222;27.924;2023-07-13T01:53:19;27.90;;;17.77;;
30874;SDS011;17581;43.222;27.924;2023-07-13T01:55:45;24.88;;;17.23;;
30874;SDS011;17581;43.222;27.924;2023-07-13T01:58:10;18.17;;;15.82;;
30874;SDS011;17581;43.222;27.924;2023-07-13T02:00:35;24.05;;;17.55;;
30874;SDS011;17581;43.222;27.924;2023-07-13T02:03:01;21.88;;;17.02;;
30874;SDS011;17581;43.222;27.924;2023-07-13T02:05:27;21.20;;;16.60;;
30874;SDS011;17581;43.222;27.924;2023-07-13T02:07:52;28.92;;;17.77;;
30874;SDS011;17581;43.222;27.924;2023-07-13T02:10:18;23.55;;;16.73;;
30874;SDS011;17581;43.222;27.924;2023-07-13T02:12:43;24.73;;;17.02;;
30874;SDS011;17581;43.222;27.924;2023-07-13T02:15:09;54.03;;;19.30;;
30874;SDS011;17581;43.222;27.924;2023-07-13T02:17:35;34.05;;;18.40;;
30874;SDS011;17581;43.222;27.924;2023-07-13T02:20:02;23.63;;;16.63;;
30874;SDS011;17581;43.222;27.924;2023-07-13T02:22:29;22.02;;;16.85;;
30874;SDS011;17581;43.222;27.924;2023-07-13T02:24:55;31.40;;;17.95;;
30874;SDS011;17581;43.222;27.924;2023-07-13T02:27:21;24.80;;;16.05;;
30874;SDS011;17581;43.222;27.924;2023-07-13T02:29:46;23.17;;;16.50;;
30874;SDS011;17581;43.222;27.924;2023-07-13T02:32:12;21.48;;;15.95;;
30874;SDS011;17581;43.222;27.924;2023-07-13T02:34:38;28.25;;;17.52;;
30874;SDS011;17581;43.222;27.924;2023-07-13T02:37:03;29.35;;;18.00;;
30874;SDS011;17581;43.222;27.924;2023-07-13T02:39:29;38.40;;;18.05;;
30874;SDS011;17581;43.222;27.924;2023-07-13T02:41:57;33.20;;;16.88;;
30874;SDS011;17581;43.222;27.924;2023-07-13T02:44:23;28.95;;;16.88;;
30874;SDS011;17581;43.222;27.924;2023-07-13T02:46:49;23.20;;;17.77;;
30874;SDS011;17581;43.222;27.924;2023-07-13T02:49:14;23.63;;;18.10;;
30874;SDS011;17581;43.222;27.924;2023-07-13T02:51:40;27.00;;;19.70;;
30874;SDS011;17581;43.222;27.924;2023-07-13T02:54:05;28.30;;;19.77;;
30874;SDS011;17581;43.222;27.924;2023-07-13T02:56:33;35.05;;;18.52;;
30874;SDS011;17581;43.222;27.924;2023-07-13T02:58:59;28.55;;;16.38;;
30874;SDS011;17581;43.222;27.924;2023-07-13T03:01:24;30.90;;;15.85;;
30874;SDS011;17581;43.222;27.924;2023-07-13T03:03:50;35.83;;;16.83;;
30874;SDS011;17581;43.222;27.924;2023-07-13T03:06:17;22.80;;;13.30;;
30874;SDS011;17581;43.222;27.924;2023-07-13T03:08:43;25.73;;;14.82;;
30874;SDS011;17581;43.222;27.924;2023-07-13T03:11:10;20.77;;;13.45;;
30874;SDS011;17581;43.222;27.924;2023-07-13T03:13:38;24.40;;;15.32;;
30874;SDS011;17581;43.222;27.924;2023-07-13T03:16:04;19.27;;;12.60;;
30874;SDS011;17581;43.222;27.924;2023-07-13T03:18:31;27.52;;;13.93;;
30874;SDS011;17581;43.222;27.924;2023-07-13T03:20:57;20.92;;;13.93;;
30874;SDS011;17581;43.222;27.924;2023-07-13T03:23:24;35.35;;;14.20;;
30874;SDS011;17581;43.222;27.924;2023-07-13T03:25:50;33.42;;;15.05;;
30874;SDS011;17581;43.222;27.924;2023-07-13T03:28:15;22.02;;;13.55;;
30874;SDS011;17581;43.222;27.924;2023-07-13T03:30:41;22.40;;;14.15;;
30874;SDS011;17581;43.222;27.924;2023-07-13T03:33:07;27.17;;;15.45;;
30874;SDS011;17581;43.222;27.924;2023-07-13T03:35:33;23.52;;;13.63;;
30874;SDS011;17581;43.222;27.924;2023-07-13T03:37:59;25.92;;;14.30;;
30874;SDS011;17581;43.222;27.924;2023-07-13T03:40:26;24.45;;;14.57;;
30874;SDS011;17581;43.222;27.924;2023-07-13T03:42:52;32.45;;;14.73;;
30874;SDS011;17581;43.222;27.924;2023-07-13T03:45:18;19.92;;;13.95;;
30874;SDS011;17581;43.222;27.924;2023-07-13T03:47:44;24.95;;;15.20;;
30874;SDS011;17581;43.222;27.924;2023-07-13T03:50:10;33.97;;;15.05;;
30874;SDS011;17581;43.222;27.924;2023-07-13T03:52:36;37.63;;;14.57;;
30874;SDS011;17581;43.222;27.924;2023-07-13T03:55:02;34.40;;;14.35;;
30874;SDS011;17581;43.222;27.924;2023-07-13T03:57:28;75.75;;;19.55;;
30874;SDS011;17581;43.222;27.924;2023-07-13T03:59:54;63.58;;;20.00;;
30874;SDS011;17581;43.222;27.924;2023-07-13T04:02:20;59.25;;;19.08;;
30874;SDS011;17581;43.222;27.924;2023-07-13T04:04:46;30.85;;;15.63;;
30874;SDS011;17581;43.222;27.924;2023-07-13T04:07:11;36.55;;;15.75;;
30874;SDS011;17581;43.222;27.924;2023-07-13T04:09:37;46.20;;;16.60;;
30874;SDS011;17581;43.222;27.924;2023-07-13T04:12:03;66.22;;;19.23;;
30874;SDS011;17581;43.222;27.924;2023-07-13T04:14:28;54.75;;;16.40;;
30874;SDS011;17581;43.222;27.924;2023-07-13T04:16:54;41.00;;;15.57;;
30874;SDS011;17581;43.222;27.924;2023-07-13T04:19:20;54.83;;;16.42;;
30874;SDS011;17581;43.222;27.924;2023-07-13T04:21:46;32.80;;;13.80;;
30874;SDS011;17581;43.222;27.924;2023-07-13T04:24:11;45.88;;;13.73;;
30874;SDS011;17581;43.222;27.924;2023-07-13T04:26:37;57.22;;;16.25;;
30874;SDS011;17581;43.222;27.924;2023-07-13T04:29:03;63.45;;;17.20;;
30874;SDS011;17581;43.222;27.924;2023-07-13T04:31:30;65.45;;;15.32;;
30874;SDS011;17581;43.222;27.924;2023-07-13T04:33:59;38.78;;;14.82;;
30874;SDS011;17581;43.222;27.924;2023-07-13T04:36:28;56.90;;;14.67;;
30874;SDS011;17581;43.222;27.924;2023-07-13T04:38:56;20.00;;;12.27;;
30874;SDS011;17581;43.222;27.924;2023-07-13T04:41:22;46.83;;;15.77;;
30874;SDS011;17581;43.222;27.924;2023-07-13T04:43:47;21.42;;;11.77;;
30874;SDS011;17581;43.222;27.924;2023-07-13T04:46:14;51.88;;;14.70;;
30874;SDS011;17581;43.222;27.924;2023-07-13T04:48:42;57.38;;;14.85;;
30874;SDS011;17581;43.222;27.924;2023-07-13T04:51:08;37.78;;;15.55;;
30874;SDS011;17581;43.222;27.924;2023-07-13T04:53:34;39.40;;;12.75;;
30874;SDS011;17581;43.222;27.924;2023-07-13T04:56:00;47.53;;;14.40;;
30874;SDS011;17581;43.222;27.924;2023-07-13T04:58:26;48.80;;;13.43;;
30874;SDS011;17581;43.222;27.924;2023-07-13T05:00:52;56.13;;;14.55;;
30874;SDS011;17581;43.222;27.924;2023-07-13T05:03:18;61.95;;;15.15;;
30874;SDS011;17581;43.222;27.924;2023-07-13T05:05:53;69.22;;;15.93;;
30874;SDS011;17581;43.222;27.924;2023-07-13T05:08:20;30.92;;;13.55;;
30874;SDS011;17581;43.222;27.924;2023-07-13T05:10:46;55.53;;;14.80;;
30874;SDS011;17581;43.222;27.924;2023-07-13T05:13:11;36.20;;;12.75;;
30874;SDS011;17581;43.222;27.924;2023-07-13T05:15:37;78.47;;;18.08;;
30874;SDS011;17581;43.222;27.924;2023-07-13T05:18:02;33.00;;;12.50;;
30874;SDS011;17581;43.222;27.924;2023-07-13T05:20:28;32.13;;;13.45;;
30874;SDS011;17581;43.222;27.924;2023-07-13T05:22:54;29.38;;;12.93;;
30874;SDS011;17581;43.222;27.924;2023-07-13T05:25:20;27.90;;;12.77;;
30874;SDS011;17581;43.222;27.924;2023-07-13T05:27:45;21.50;;;13.32;;
30874;SDS011;17581;43.222;27.924;2023-07-13T05:30:12;43.17;;;15.90;;
30874;SDS011;17581;43.222;27.924;2023-07-13T05:32:37;29.70;;;12.07;;
30874;SDS011;17581;43.222;27.924;2023-07-13T05:35:03;29.02;;;11.77;;
30874;SDS011;17581;43.222;27.924;2023-07-13T05:37:29;19.98;;;12.25;;
30874;SDS011;17581;43.222;27.924;2023-07-13T05:39:54;30.17;;;12.10;;
30874;SDS011;17581;43.222;27.924;2023-07-13T05:42:20;18.67;;;11.45;;
30874;SDS011;17581;43.222;27.924;2023-07-13T05:44:45;26.77;;;13.48;;
30874;SDS011;17581;43.222;27.924;2023-07-13T05:47:10;28.83;;;12.90;;
30874;SDS011;17581;43.222;27.924;2023-07-13T05:49:36;45.85;;;14.90;;
30874;SDS011;17581;43.222;27.924;2023-07-13T05:52:02;31.85;;;11.40;;
30874;SDS011;17581;43.222;27.924;2023-07-13T05:54:27;27.30;;;12.25;;
30874;SDS011;17581;43.222;27.924;2023-07-13T05:56:53;24.60;;;11.98;;
30874;SDS011;17581;43.222;27.924;2023-07-13T05:59:18;28.35;;;12.18;;
30874;SDS011;17581;43.222;27.924;2023-07-13T06:01:44;23.10;;;12.13;;
30874;SDS011;17581;43.222;27.924;2023-07-13T06:04:09;32.03;;;12.75;;
30874;SDS011;17581;43.222;27.924;2023-07-13T06:06:34;29.50;;;12.77;;
30874;SDS011;17581;43.222;27.924;2023-07-13T06:09:00;48.15;;;14.10;;
30874;SDS011;17581;43.222;27.924;2023-07-13T06:11:26;32.45;;;14.20;;
30874;SDS011;17581;43.222;27.924;2023-07-13T06:13:52;18.02;;;12.00;;
30874;SDS011;17581;43.222;27.924;2023-07-13T06:16:19;26.40;;;12.18;;
30874;SDS011;17581;43.222;27.924;2023-07-13T06:18:44;27.33;;;12.68;;
30874;SDS011;17581;43.222;27.924;2023-07-13T06:21:12;23.70;;;12.13;;
30874;SDS011;17581;43.222;27.924;2023-07-13T06:23:40;39.30;;;14.02;;
30874;SDS011;17581;43.222;27.924;2023-07-13T06:26:06;30.50;;;13.07;;
30874;SDS011;17581;43.222;27.924;2023-07-13T06:28:32;29.63;;;14.57;;
30874;SDS011;17581;43.222;27.924;2023-07-13T06:30:58;21.17;;;13.10;;
30874;SDS011;17581;43.222;27.924;2023-07-13T06:33:24;31.58;;;16.88;;
30874;SDS011;17581;43.222;27.924;2023-07-13T06:35:50;38.95;;;15.77;;
30874;SDS011;17581;43.222;27.924;2023-07-13T06:38:15;28.77;;;12.63;;
30874;SDS011;17581;43.222;27.924;2023-07-13T06:40:41;32.00;;;13.15;;
30874;SDS011;17581;43.222;27.924;2023-07-13T06:43:06;29.95;;;13.88;;
30874;SDS011;17581;43.222;27.924;2023-07-13T06:45:39;29.55;;;12.52;;
30874;SDS011;17581;43.222;27.924;2023-07-13T06:48:06;22.38;;;13.40;;
30874;SDS011;17581;43.222;27.924;2023-07-13T06:50:32;26.45;;;13.80;;
30874;SDS011;17581;43.222;27.924;2023-07-13T06:52:58;29.20;;;14.18;;
30874;SDS011;17581;43.222;27.924;2023-07-13T06:55:24;22.58;;;12.70;;
30874;SDS011;17581;43.222;27.924;2023-07-13T06:57:50;29.50;;;13.18;;
30874;SDS011;17581;43.222;27.924;2023-07-13T07:00:16;29.95;;;13.18;;
30874;SDS011;17581;43.222;27.924;2023-07-13T07:02:42;30.05;;;10.52;;
30874;SDS011;17581;43.222;27.924;2023-07-13T07:05:07;26.17;;;12.35;;
30874;SDS011;17581;43.222;27.924;2023-07-13T07:07:32;20.65;;;11.10;;
30874;SDS011;17581;43.222;27.924;2023-07-13T07:09:58;26.63;;;11.32;;
30874;SDS011;17581;43.222;27.924;2023-07-13T07:12:23;19.33;;;10.70;;
30874;SDS011;17581;43.222;27.924;2023-07-13T07:14:49;24.50;;;10.75;;
30874;SDS011;17581;43.222;27.924;2023-07-13T07:17:14;39.65;;;19.25;;
30874;SDS011;17581;43.222;27.924;2023-07-13T07:19:40;22.50;;;11.00;;
30874;SDS011;17581;43.222;27.924;2023-07-13T07:22:06;26.17;;;11.70;;
30874;SDS011;17581;43.222;27.924;2023-07-13T07:24:32;23.38;;;12.90;;
30874;SDS011;17581;43.222;27.924;2023-07-13T07:26:57;45.70;;;14.27;;
30874;SDS011;17581;43.222;27.924;2023-07-13T07:29:23;21.73;;;12.25;;
30874;SDS011;17581;43.222;27.924;2023-07-13T07:31:51;74.63;;;18.70;;
30874;SDS011;17581;43.222;27.924;2023-07-13T07:34:17;29.73;;;12.73;;
30874;SDS011;17581;43.222;27.924;2023-07-13T07:36:42;26.90;;;12.85;;
30874;SDS011;17581;43.222;27.924;2023-07-13T07:39:08;24.50;;;12.50;;
30874;SDS011;17581;43.222;27.924;2023-07-13T07:41:33;49.53;;;14.20;;
30874;SDS011;17581;43.222;27.924;2023-07-13T07:43:58;61.08;;;13.38;;
30874;SDS011;17581;43.222;27.924;2023-07-13T07:46:24;26.60;;;11.45;;
30874;SDS011;17581;43.222;27.924;2023-07-13T07:48:49;31.88;;;12.27;;
30874;SDS011;17581;43.222;27.924;2023-07-13T07:51:15;17.63;;;10.75;;
30874;SDS011;17581;43.222;27.924;2023-07-13T07:53:40;25.20;;;11.20;;
30874;SDS011;17581;43.222;27.924;2023-07-13T07:56:06;27.17;;;11.68;;
30874;SDS011;17581;43.222;27.924;2023-07-13T07:58:31;27.45;;;11.48;;
30874;SDS011;17581;43.222;27.924;2023-07-13T08:01:03;26.15;;;12.07;;
30874;SDS011;17581;43.222;27.924;2023-07-13T08:03:32;26.42;;;10.82;;
30874;SDS011;17581;43.222;27.924;2023-07-13T08:05:58;27.48;;;11.77;;
30874;SDS011;17581;43.222;27.924;2023-07-13T08:08:24;21.70;;;10.98;;
30874;SDS011;17581;43.222;27.924;2023-07-13T08:10:49;32.83;;;12.20;;
30874;SDS011;17581;43.222;27.924;2023-07-13T08:13:15;42.80;;;13.23;;
30874;SDS011;17581;43.222;27.924;2023-07-13T08:15:40;17.20;;;12.02;;
30874;SDS011;17581;43.222;27.924;2023-07-13T08:18:06;46.80;;;12.63;;
30874;SDS011;17581;43.222;27.924;2023-07-13T08:20:36;40.53;;;10.82;;
30874;SDS011;17581;43.222;27.924;2023-07-13T08:23:05;32.08;;;10.93;;
30874;SDS011;17581;43.222;27.924;2023-07-13T08:25:32;18.98;;;10.85;;
30874;SDS011;17581;43.222;27.924;2023-07-13T08:27:57;19.77;;;10.57;;
30874;SDS011;17581;43.222;27.924;2023-07-13T08:30:23;32.78;;;10.82;;
30874;SDS011;17581;43.222;27.924;2023-07-13T08:32:48;23.85;;;10.98;;
30874;SDS011;17581;43.222;27.924;2023-07-13T08:35:14;20.27;;;10.50;;
30874;SDS011;17581;43.222;27.924;2023-07-13T08:37:41;21.38;;;12.05;;
30874;SDS011;17581;43.222;27.924;2023-07-13T08:40:08;21.92;;;11.65;;
30874;SDS011;17581;43.222;27.924;2023-07-13T08:47:41;40.78;;;12.10;;
30874;SDS011;17581;43.222;27.924;2023-07-13T08:50:13;24.23;;;11.63;;
30874;SDS011;17581;43.222;27.924;2023-07-13T08:52:44;22.35;;;10.93;;
30874;SDS011;17581;43.222;27.924;2023-07-13T08:55:16;25.50;;;11.93;;
30874;SDS011;17581;43.222;27.924;2023-07-13T08:57:48;29.88;;;10.85;;
30874;SDS011;17581;43.222;27.924;2023-07-13T09:00:18;35.25;;;13.90;;
30874;SDS011;17581;43.222;27.924;2023-07-13T09:02:50;37.78;;;12.98;;
30874;SDS011;17581;43.222;27.924;2023-07-13T09:05:25;52.88;;;23.85;;
30874;SDS011;17581;43.222;27.924;2023-07-13T09:10:49;19.52;;;12.45;;
30874;SDS011;17581;43.222;27.924;2023-07-13T09:13:37;23.48;;;12.32;;
30874;SDS011;17581;43.222;27.924;2023-07-13T09:16:12;28.42;;;14.00;;
30874;SDS011;17581;43.222;27.924;2023-07-13T09:18:39;22.15;;;12.23;;
30874;SDS011;17581;43.222;27.924;2023-07-13T09:23:43;38.28;;;13.98;;
30874;SDS011;17581;43.222;27.924;2023-07-13T09:26:13;39.63;;;13.40;;
30874;SDS011;17581;43.222;27.924;2023-07-13T09:28:43;27.92;;;12.57;;
30874;SDS011;17581;43.222;27.924;2023-07-13T09:31:13;34.17;;;13.05;;
30874;SDS011;17581;43.222;27.924;2023-07-13T09:33:41;48.60;;;14.18;;
30874;SDS011;17581;43.222;27.924;2023-07-13T09:36:24;65.85;;;16.40;;
30874;SDS011;17581;43.222;27.924;2023-07-13T09:41:50;24.95;;;11.90;;
30874;SDS011;17581;43.222;27.924;2023-07-13T09:44:17;22.45;;;12.20;;
30874;SDS011;17581;43.222;27.924;2023-07-13T09:46:54;22.13;;;11.75;;
30874;SDS011;17581;43.222;27.924;2023-07-13T09:49:24;24.08;;;12.10;;
30874;SDS011;17581;43.222;27.924;2023-07-13T09:51:51;19.00;;;12.18;;
30874;SDS011;17581;43.222;27.924;2023-07-13T09:54:25;34.58;;;13.32;;
30874;SDS011;17581;43.222;27.924;2023-07-13T09:57:12;26.05;;;13.52;;
30874;SDS011;17581;43.222;27.924;2023-07-13T09:59:46;27.70;;;12.10;;
30874;SDS011;17581;43.222;27.924;2023-07-13T10:02:29;23.73;;;12.90;;
30874;SDS011;17581;43.222;27.924;2023-07-13T10:07:28;26.92;;;11.65;;
30874;SDS011;17581;43.222;27.924;2023-07-13T10:09:55;26.23;;;12.20;;
30874;SDS011;17581;43.222;27.924;2023-07-13T10:12:28;53.10;;;15.15;;
30874;SDS011;17581;43.222;27.924;2023-07-13T10:14:56;23.77;;;12.75;;
30874;SDS011;17581;43.222;27.924;2023-07-13T10:17:31;27.08;;;13.18;;
30874;SDS011;17581;43.222;27.924;2023-07-13T10:20:02;27.50;;;12.15;;
30874;SDS011;17581;43.222;27.924;2023-07-13T10:22:38;29.60;;;12.30;;
30874;SDS011;17581;43.222;27.924;2023-07-13T10:25:18;33.90;;;12.68;;
30874;SDS011;17581;43.222;27.924;2023-07-13T10:27:47;24.55;;;13.45;;
30874;SDS011;17581;43.222;27.924;2023-07-13T10:32:48;35.20;;;13.10;;
30874;SDS011;17581;43.222;27.924;2023-07-13T10:35:15;24.02;;;12.93;;
30874;SDS011;17581;43.222;27.924;2023-07-13T10:37:53;24.35;;;12.70;;
30874;SDS011;17581;43.222;27.924;2023-07-13T10:40:30;16.33;;;10.98;;
30874;SDS011;17581;43.222;27.924;2023-07-13T10:43:03;35.85;;;14.18;;
30874;SDS011;17581;43.222;27.924;2023-07-13T10:45:35;29.17;;;12.88;;
30874;SDS011;17581;43.222;27.924;2023-07-13T10:48:02;17.00;;;12.85;;
30874;SDS011;17581;43.222;27.924;2023-07-13T10:50:30;25.10;;;11.82;;
30874;SDS011;17581;43.222;27.924;2023-07-13T10:53:03;21.40;;;12.38;;
30874;SDS011;17581;43.222;27.924;2023-07-13T11:00:46;49.13;;;14.80;;
30874;SDS011;17581;43.222;27.924;2023-07-13T11:03:18;28.75;;;12.43;;
30874;SDS011;17581;43.222;27.924;2023-07-13T11:05:50;28.70;;;12.38;;
30874;SDS011;17581;43.222;27.924;2023-07-13T11:08:33;31.02;;;14.10;;
30874;SDS011;17581;43.222;27.924;2023-07-13T11:11:03;38.58;;;13.98;;
30874;SDS011;17581;43.222;27.924;2023-07-13T11:18:46;38.92;;;13.73;;
30874;SDS011;17581;43.222;27.924;2023-07-13T11:21:25;20.65;;;12.68;;
30874;SDS011;17581;43.222;27.924;2023-07-13T11:24:03;31.85;;;14.50;;
30874;SDS011;17581;43.222;27.924;2023-07-13T11:31:40;34.05;;;13.85;;
30874;SDS011;17581;43.222;27.924;2023-07-13T11:34:21;20.13;;;13.25;;
30874;SDS011;17581;43.222;27.924;2023-07-13T11:36:53;20.45;;;13.13;;
30874;SDS011;17581;43.222;27.924;2023-07-13T11:39:28;45.88;;;17.33;;
30874;SDS011;17581;43.222;27.924;2023-07-13T11:41:57;24.92;;;12.70;;
30874;SDS011;17581;43.222;27.924;2023-07-13T11:44:26;26.42;;;12.70;;
30874;SDS011;17581;43.222;27.924;2023-07-13T11:46:57;37.42;;;13.35;;
30874;SDS011;17581;43.222;27.924;2023-07-13T11:49:36;27.02;;;13.00;;
30874;SDS011;17581;43.222;27.924;2023-07-13T11:52:13;21.88;;;13.32;;
30874;SDS011;17581;43.222;27.924;2023-07-13T11:54:49;33.78;;;13.27;;
30874;SDS011;17581;43.222;27.924;2023-07-13T11:59:49;22.55;;;12.43;;
30874;SDS011;17581;43.222;27.924;2023-07-13T12:02:26;23.35;;;13.10;;
30874;SDS011;17581;43.222;27.924;2023-07-13T12:04:55;25.58;;;12.82;;
30874;SDS011;17581;43.222;27.924;2023-07-13T12:07:21;19.77;;;14.00;;
30874;SDS011;17581;43.222;27.924;2023-07-13T12:09:47;15.15;;;12.25;;
30874;SDS011;17581;43.222;27.924;2023-07-13T12:12:20;20.30;;;12.27;;
30874;SDS011;17581;43.222;27.924;2023-07-13T12:14:50;29.77;;;13.73;;
30874;SDS011;17581;43.222;27.924;2023-07-13T12:17:19;21.58;;;12.38;;
30874;SDS011;17581;43.222;27.924;2023-07-13T12:19:46;18.95;;;12.43;;
30874;SDS011;17581;43.222;27.924;2023-07-13T12:22:13;27.63;;;13.43;;
30874;SDS011;17581;43.222;27.924;2023-07-13T12:24:41;25.88;;;11.65;;
30874;SDS011;17581;43.222;27.924;2023-07-13T12:30:00;18.30;;;11.95;;
30874;SDS011;17581;43.222;27.924;2023-07-13T12:32:27;25.10;;;13.00;;
30874;SDS011;17581;43.222;27.924;2023-07-13T12:34:56;22.13;;;12.82;;
30874;SDS011;17581;43.222;27.924;2023-07-13T12:37:28;33.20;;;12.93;;
30874;SDS011;17581;43.222;27.924;2023-07-13T12:39:55;16.98;;;12.30;;
30874;SDS011;17581;43.222;27.924;2023-07-13T12:42:26;30.02;;;12.70;;
30874;SDS011;17581;43.222;27.924;2023-07-13T12:44:57;18.80;;;11.77;;
30874;SDS011;17581;43.222;27.924;2023-07-13T12:47:26;22.30;;;12.27;;
30874;SDS011;17581;43.222;27.924;2023-07-13T12:49:56;19.23;;;11.40;;
30874;SDS011;17581;43.222;27.924;2023-07-13T12:52:27;18.13;;;12.60;;
30874;SDS011;17581;43.222;27.924;2023-07-13T12:55:15;36.88;;;12.52;;
30874;SDS011;17581;43.222;27.924;2023-07-13T12:58:04;18.50;;;11.10;;
30874;SDS011;17581;43.222;27.924;2023-07-13T13:00:31;12.95;;;10.85;;
30874;SDS011;17581;43.222;27.924;2023-07-13T13:03:07;22.00;;;11.95;;
30874;SDS011;17581;43.222;27.924;2023-07-13T13:05:43;36.17;;;12.07;;
30874;SDS011;17581;43.222;27.924;2023-07-13T13:08:11;15.25;;;10.98;;
30874;SDS011;17581;43.222;27.924;2023-07-13T13:10:37;24.05;;;12.02;;
30874;SDS011;17581;43.222;27.924;2023-07-13T13:13:02;15.35;;;11.68;;
30874;SDS011;17581;43.222;27.924;2023-07-13T13:15:28;20.45;;;10.80;;
30874;SDS011;17581;43.222;27.924;2023-07-13T13:17:55;20.52;;;11.48;;
30874;SDS011;17581;43.222;27.924;2023-07-13T13:20:21;27.85;;;13.57;;
30874;SDS011;17581;43.222;27.924;2023-07-13T13:22:48;23.88;;;12.07;;
30874;SDS011;17581;43.222;27.924;2023-07-13T13:25:14;18.58;;;11.65;;
30874;SDS011;17581;43.222;27.924;2023-07-13T13:27:43;28.05;;;11.82;;
30874;SDS011;17581;43.222;27.924;2023-07-13T13:30:14;15.65;;;10.85;;
30874;SDS011;17581;43.222;27.924;2023-07-13T13:32:46;16.40;;;10.70;;
30874;SDS011;17581;43.222;27.924;2023-07-13T13:35:14;19.40;;;12.73;;
30874;SDS011;17581;43.222;27.924;2023-07-13T13:37:40;27.80;;;11.82;;
30874;SDS011;17581;43.222;27.924;2023-07-13T13:40:16;19.77;;;11.23;;
30874;SDS011;17581;43.222;27.924;2023-07-13T13:42:43;31.48;;;12.43;;
30874;SDS011;17581;43.222;27.924;2023-07-13T13:45:09;38.58;;;12.65;;
30874;SDS011;17581;43.222;27.924;2023-07-13T13:47:35;26.48;;;11.85;;
30874;SDS011;17581;43.222;27.924;2023-07-13T13:50:04;36.42;;;13.63;;
30874;SDS011;17581;43.222;27.924;2023-07-13T13:52:55;28.90;;;13.63;;
30874;SDS011;17581;43.222;27.924;2023-07-13T13:55:20;23.80;;;12.57;;
30874;SDS011;17581;43.222;27.924;2023-07-13T13:57:46;28.23;;;12.95;;
30874;SDS011;17581;43.222;27.924;2023-07-13T14:00:13;21.55;;;12.95;;
30874;SDS011;17581;43.222;27.924;2023-07-13T14:02:48;26.52;;;14.55;;
30874;SDS011;17581;43.222;27.924;2023-07-13T14:05:21;22.65;;;13.52;;
30874;SDS011;17581;43.222;27.924;2023-07-13T14:07:51;28.13;;;12.52;;
30874;SDS011;17581;43.222;27.924;2023-07-13T14:10:18;22.38;;;12.93;;
30874;SDS011;17581;43.222;27.924;2023-07-13T14:12:48;20.92;;;14.20;;
30874;SDS011;17581;43.222;27.924;2023-07-13T14:15:21;32.20;;;13.90;;
30874;SDS011;17581;43.222;27.924;2023-07-13T14:17:55;40.13;;;14.45;;
30874;SDS011;17581;43.222;27.924;2023-07-13T14:20:23;30.30;;;13.90;;
30874;SDS011;17581;43.222;27.924;2023-07-13T14:22:50;39.85;;;14.18;;
30874;SDS011;17581;43.222;27.924;2023-07-13T14:25:17;30.33;;;13.20;;
30874;SDS011;17581;43.222;27.924;2023-07-13T14:27:44;17.92;;;12.90;;
30874;SDS011;17581;43.222;27.924;2023-07-13T14:30:15;21.17;;;14.38;;
30874;SDS011;17581;43.222;27.924;2023-07-13T14:32:42;96.70;;;23.83;;
30874;SDS011;17581;43.222;27.924;2023-07-13T14:35:11;22.88;;;14.05;;
30874;SDS011;17581;43.222;27.924;2023-07-13T14:37:39;33.38;;;14.50;;
30874;SDS011;17581;43.222;27.924;2023-07-13T14:40:15;23.60;;;14.05;;
30874;SDS011;17581;43.222;27.924;2023-07-13T14:42:43;25.70;;;12.75;;
30874;SDS011;17581;43.222;27.924;2023-07-13T14:45:13;37.97;;;13.73;;
30874;SDS011;17581;43.222;27.924;2023-07-13T14:47:43;24.85;;;13.50;;
30874;SDS011;17581;43.222;27.924;2023-07-13T14:50:15;44.92;;;15.80;;
30874;SDS011;17581;43.222;27.924;2023-07-13T14:52:43;29.55;;;14.35;;
30874;SDS011;17581;43.222;27.924;2023-07-13T14:55:11;31.20;;;15.27;;
30874;SDS011;17581;43.222;27.924;2023-07-13T14:57:37;24.00;;;14.40;;